sensor_id;sensor_type;location;lat;lon;timestamp;P1;durP1;ratioP1;P2;durP2;ratioP2
76640;SDS011;65538;50.798;6.064;2023-08-21T00:01:16;6.97;;;3.63;;
76640;SDS011;65538;50.798;6.064;2023-08-21T00:03:41;9.85;;;3.80;;
76640;SDS011;65538;50.798;6.064;2023-08-21T00:06:07;8.10;;;3.60;;
76640;SDS011;65538;50.798;6.064;2023-08-21T00:08:32;6.93;;;3.17;;
76640;SDS011;65538;50.798;6.064;2023-08-21T00:10:57;7.57;;;3.30;;
76640;SDS011;65538;50.798;6.064;2023-08-21T00:13:22;7.40;;;3.53;;
76640;SDS011;65538;50.798;6.064;2023-08-21T00:15:48;9.87;;;3.70;;
76640;SDS011;65538;50.798;6.064;2023-08-21T00:18:13;8.77;;;3.50;;
76640;SDS011;65538;50.798;6.064;2023-08-21T00:20:39;8.18;;;3.60;;
76640;SDS011;65538;50.798;6.064;2023-08-21T00:23:06;5.53;;;3.42;;
76640;SDS011;65538;50.798;6.064;2023-08-21T00:25:31;6.60;;;3.37;;
76640;SDS011;65538;50.798;6.064;2023-08-21T00:27:57;7.63;;;4.13;;
76640;SDS011;65538;50.798;6.064;2023-08-21T00:30:22;8.63;;;3.97;;
76640;SDS011;65538;50.798;6.064;2023-08-21T00:32:47;9.90;;;3.90;;
76640;SDS011;65538;50.798;6.064;2023-08-21T00:35:12;8.37;;;3.37;;
76640;SDS011;65538;50.798;6.064;2023-08-21T00:37:37;12.43;;;3.97;;
76640;SDS011;65538;50.798;6.064;2023-08-21T00:40:03;11.33;;;3.80;;
76640;SDS011;65538;50.798;6.064;2023-08-21T00:42:28;9.48;;;3.65;;
76640;SDS011;65538;50.798;6.064;2023-08-21T00:44:53;7.30;;;3.40;;
76640;SDS011;65538;50.798;6.064;2023-08-21T00:47:18;8.77;;;3.60;;
76640;SDS011;65538;50.798;6.064;2023-08-21T00:49:44;6.22;;;3.55;;
76640;SDS011;65538;50.798;6.064;2023-08-21T00:52:10;6.93;;;3.60;;
76640;SDS011;65538;50.798;6.064;2023-08-21T00:54:37;7.13;;;3.55;;
76640;SDS011;65538;50.798;6.064;2023-08-21T00:57:02;6.50;;;3.80;;
76640;SDS011;65538;50.798;6.064;2023-08-21T00:59:28;10.10;;;4.00;;
76640;SDS011;65538;50.798;6.064;2023-08-21T01:01:53;6.32;;;4.20;;
76640;SDS011;65538;50.798;6.064;2023-08-21T01:04:18;6.37;;;3.47;;
76640;SDS011;65538;50.798;6.064;2023-08-21T01:06:43;5.47;;;3.40;;
76640;SDS011;65538;50.798;6.064;2023-08-21T01:14:30;7.63;;;3.40;;
76640;SDS011;65538;50.798;6.064;2023-08-21T01:16:59;7.50;;;3.40;;
76640;SDS011;65538;50.798;6.064;2023-08-21T01:19:47;13.75;;;5.68;;
76640;SDS011;65538;50.798;6.064;2023-08-21T01:22:09;9.13;;;4.25;;
76640;SDS011;65538;50.798;6.064;2023-08-21T01:24:35;9.83;;;3.97;;
76640;SDS011;65538;50.798;6.064;2023-08-21T01:27:00;14.37;;;6.93;;
76640;SDS011;65538;50.798;6.064;2023-08-21T01:29:25;6.82;;;3.80;;
76640;SDS011;65538;50.798;6.064;2023-08-21T01:31:52;5.17;;;3.23;;
76640;SDS011;65538;50.798;6.064;2023-08-21T01:34:19;10.32;;;3.42;;
76640;SDS011;65538;50.798;6.064;2023-08-21T01:36:44;9.48;;;3.90;;
76640;SDS011;65538;50.798;6.064;2023-08-21T01:39:10;9.45;;;4.07;;
76640;SDS011;65538;50.798;6.064;2023-08-21T01:41:35;8.33;;;4.50;;
76640;SDS011;65538;50.798;6.064;2023-08-21T01:44:00;8.80;;;4.50;;
76640;SDS011;65538;50.798;6.064;2023-08-21T01:46:26;7.53;;;3.97;;
76640;SDS011;65538;50.798;6.064;2023-08-21T01:48:51;9.77;;;4.97;;
76640;SDS011;65538;50.798;6.064;2023-08-21T01:51:16;15.37;;;8.47;;
76640;SDS011;65538;50.798;6.064;2023-08-21T01:53:41;14.93;;;6.63;;
76640;SDS011;65538;50.798;6.064;2023-08-21T01:56:06;18.73;;;9.73;;
76640;SDS011;65538;50.798;6.064;2023-08-21T01:58:32;8.67;;;3.67;;
76640;SDS011;65538;50.798;6.064;2023-08-21T02:00:57;14.40;;;6.77;;
76640;SDS011;65538;50.798;6.064;2023-08-21T02:03:24;10.73;;;5.13;;
76640;SDS011;65538;50.798;6.064;2023-08-21T02:05:50;7.70;;;3.30;;
76640;SDS011;65538;50.798;6.064;2023-08-21T02:08:16;7.53;;;3.13;;
76640;SDS011;65538;50.798;6.064;2023-08-21T02:10:51;8.88;;;3.65;;
76640;SDS011;65538;50.798;6.064;2023-08-21T02:13:17;7.82;;;3.47;;
76640;SDS011;65538;50.798;6.064;2023-08-21T02:15:43;8.25;;;3.40;;
76640;SDS011;65538;50.798;6.064;2023-08-21T02:18:08;7.93;;;3.83;;
76640;SDS011;65538;50.798;6.064;2023-08-21T02:20:34;7.53;;;3.08;;
76640;SDS011;65538;50.798;6.064;2023-08-21T02:22:59;6.77;;;3.17;;
76640;SDS011;65538;50.798;6.064;2023-08-21T02:25:24;11.63;;;4.27;;
76640;SDS011;65538;50.798;6.064;2023-08-21T02:27:49;8.57;;;4.07;;
76640;SDS011;65538;50.798;6.064;2023-08-21T02:30:14;6.00;;;3.37;;
76640;SDS011;65538;50.798;6.064;2023-08-21T02:32:40;7.03;;;3.50;;
76640;SDS011;65538;50.798;6.064;2023-08-21T02:35:05;9.20;;;5.00;;
76640;SDS011;65538;50.798;6.064;2023-08-21T02:37:31;9.68;;;3.97;;
76640;SDS011;65538;50.798;6.064;2023-08-21T02:39:56;13.83;;;4.40;;
76640;SDS011;65538;50.798;6.064;2023-08-21T02:42:21;7.20;;;3.90;;
76640;SDS011;65538;50.798;6.064;2023-08-21T02:44:46;6.57;;;3.53;;
76640;SDS011;65538;50.798;6.064;2023-08-21T02:47:11;7.30;;;3.53;;
76640;SDS011;65538;50.798;6.064;2023-08-21T02:49:37;11.10;;;3.93;;
76640;SDS011;65538;50.798;6.064;2023-08-21T02:52:02;10.40;;;3.80;;
76640;SDS011;65538;50.798;6.064;2023-08-21T02:54:27;7.87;;;3.60;;
76640;SDS011;65538;50.798;6.064;2023-08-21T02:56:52;8.83;;;3.50;;
76640;SDS011;65538;50.798;6.064;2023-08-21T02:59:18;6.27;;;3.63;;
76640;SDS011;65538;50.798;6.064;2023-08-21T03:01:43;6.47;;;3.40;;
76640;SDS011;65538;50.798;6.064;2023-08-21T03:04:08;4.83;;;3.20;;
76640;SDS011;65538;50.798;6.064;2023-08-21T03:06:33;9.50;;;3.53;;
76640;SDS011;65538;50.798;6.064;2023-08-21T03:08:58;6.40;;;3.33;;
76640;SDS011;65538;50.798;6.064;2023-08-21T03:11:23;6.40;;;3.40;;
76640;SDS011;65538;50.798;6.064;2023-08-21T03:13:49;9.17;;;3.43;;
76640;SDS011;65538;50.798;6.064;2023-08-21T03:16:14;7.97;;;3.60;;
76640;SDS011;65538;50.798;6.064;2023-08-21T03:18:58;6.73;;;3.13;;
76640;SDS011;65538;50.798;6.064;2023-08-21T03:21:24;4.72;;;3.05;;
76640;SDS011;65538;50.798;6.064;2023-08-21T03:23:55;7.63;;;3.57;;
76640;SDS011;65538;50.798;6.064;2023-08-21T03:26:20;7.35;;;3.08;;
76640;SDS011;65538;50.798;6.064;2023-08-21T03:28:45;7.00;;;3.20;;
76640;SDS011;65538;50.798;6.064;2023-08-21T03:31:10;9.80;;;3.20;;
76640;SDS011;65538;50.798;6.064;2023-08-21T03:33:36;7.13;;;3.27;;
76640;SDS011;65538;50.798;6.064;2023-08-21T03:36:01;8.63;;;3.40;;
76640;SDS011;65538;50.798;6.064;2023-08-21T03:38:26;7.53;;;3.90;;
76640;SDS011;65538;50.798;6.064;2023-08-21T03:40:51;7.80;;;3.57;;
76640;SDS011;65538;50.798;6.064;2023-08-21T03:43:16;9.57;;;3.67;;
76640;SDS011;65538;50.798;6.064;2023-08-21T03:45:42;8.27;;;3.67;;
76640;SDS011;65538;50.798;6.064;2023-08-21T03:48:07;6.77;;;3.30;;
76640;SDS011;65538;50.798;6.064;2023-08-21T03:50:32;8.23;;;3.60;;
76640;SDS011;65538;50.798;6.064;2023-08-21T03:52:57;8.23;;;3.60;;
76640;SDS011;65538;50.798;6.064;2023-08-21T03:55:22;7.97;;;3.20;;
76640;SDS011;65538;50.798;6.064;2023-08-21T03:57:48;8.40;;;3.30;;
76640;SDS011;65538;50.798;6.064;2023-08-21T04:00:13;6.23;;;3.00;;
76640;SDS011;65538;50.798;6.064;2023-08-21T04:02:38;7.85;;;3.20;;
76640;SDS011;65538;50.798;6.064;2023-08-21T04:05:03;6.67;;;3.17;;
76640;SDS011;65538;50.798;6.064;2023-08-21T04:07:29;6.00;;;3.20;;
76640;SDS011;65538;50.798;6.064;2023-08-21T04:09:54;5.10;;;3.13;;
76640;SDS011;65538;50.798;6.064;2023-08-21T04:12:19;8.23;;;3.60;;
76640;SDS011;65538;50.798;6.064;2023-08-21T04:14:44;6.67;;;3.33;;
76640;SDS011;65538;50.798;6.064;2023-08-21T04:17:10;7.17;;;3.47;;
76640;SDS011;65538;50.798;6.064;2023-08-21T04:19:35;7.60;;;3.53;;
76640;SDS011;65538;50.798;6.064;2023-08-21T04:22:00;5.93;;;3.47;;
76640;SDS011;65538;50.798;6.064;2023-08-21T04:24:25;6.33;;;3.60;;
76640;SDS011;65538;50.798;6.064;2023-08-21T04:26:50;6.50;;;3.57;;
76640;SDS011;65538;50.798;6.064;2023-08-21T04:29:15;9.50;;;3.70;;
76640;SDS011;65538;50.798;6.064;2023-08-21T04:31:41;8.80;;;3.97;;
76640;SDS011;65538;50.798;6.064;2023-08-21T04:34:06;6.60;;;3.70;;
76640;SDS011;65538;50.798;6.064;2023-08-21T04:36:31;9.10;;;4.03;;
76640;SDS011;65538;50.798;6.064;2023-08-21T04:38:56;9.47;;;4.03;;
76640;SDS011;65538;50.798;6.064;2023-08-21T04:41:21;9.90;;;4.20;;
76640;SDS011;65538;50.798;6.064;2023-08-21T04:43:47;9.87;;;3.70;;
76640;SDS011;65538;50.798;6.064;2023-08-21T04:46:12;8.17;;;3.60;;
76640;SDS011;65538;50.798;6.064;2023-08-21T04:48:37;6.77;;;3.67;;
76640;SDS011;65538;50.798;6.064;2023-08-21T04:51:02;11.77;;;4.50;;
76640;SDS011;65538;50.798;6.064;2023-08-21T04:53:27;6.47;;;4.50;;
76640;SDS011;65538;50.798;6.064;2023-08-21T04:55:53;8.53;;;5.03;;
76640;SDS011;65538;50.798;6.064;2023-08-21T04:58:18;9.77;;;4.97;;
76640;SDS011;65538;50.798;6.064;2023-08-21T05:00:46;12.77;;;6.10;;
76640;SDS011;65538;50.798;6.064;2023-08-21T05:03:11;13.52;;;5.60;;
76640;SDS011;65538;50.798;6.064;2023-08-21T05:05:37;12.00;;;5.78;;
76640;SDS011;65538;50.798;6.064;2023-08-21T05:08:02;13.60;;;6.53;;
76640;SDS011;65538;50.798;6.064;2023-08-21T05:10:28;12.63;;;6.65;;
76640;SDS011;65538;50.798;6.064;2023-08-21T05:12:53;16.40;;;7.63;;
76640;SDS011;65538;50.798;6.064;2023-08-21T05:15:18;12.02;;;6.90;;
76640;SDS011;65538;50.798;6.064;2023-08-21T05:17:43;12.60;;;6.17;;
76640;SDS011;65538;50.798;6.064;2023-08-21T05:20:09;10.47;;;6.97;;
76640;SDS011;65538;50.798;6.064;2023-08-21T05:22:35;15.30;;;6.50;;
76640;SDS011;65538;50.798;6.064;2023-08-21T05:25:00;10.80;;;6.30;;
76640;SDS011;65538;50.798;6.064;2023-08-21T05:27:25;11.93;;;6.67;;
76640;SDS011;65538;50.798;6.064;2023-08-21T05:29:50;10.60;;;7.10;;
76640;SDS011;65538;50.798;6.064;2023-08-21T05:32:16;19.77;;;6.43;;
76640;SDS011;65538;50.798;6.064;2023-08-21T05:34:41;8.35;;;5.07;;
76640;SDS011;65538;50.798;6.064;2023-08-21T05:37:06;9.87;;;6.30;;
76640;SDS011;65538;50.798;6.064;2023-08-21T05:39:32;10.13;;;5.33;;
76640;SDS011;65538;50.798;6.064;2023-08-21T05:41:57;10.17;;;6.33;;
76640;SDS011;65538;50.798;6.064;2023-08-21T05:44:23;10.45;;;5.45;;
76640;SDS011;65538;50.798;6.064;2023-08-21T05:46:48;10.27;;;4.97;;
76640;SDS011;65538;50.798;6.064;2023-08-21T05:49:14;13.80;;;5.80;;
76640;SDS011;65538;50.798;6.064;2023-08-21T05:51:39;9.23;;;5.37;;
76640;SDS011;65538;50.798;6.064;2023-08-21T05:54:04;10.40;;;5.10;;
76640;SDS011;65538;50.798;6.064;2023-08-21T05:56:29;9.03;;;4.67;;
76640;SDS011;65538;50.798;6.064;2023-08-21T05:58:54;9.13;;;4.70;;
76640;SDS011;65538;50.798;6.064;2023-08-21T06:01:20;12.30;;;4.80;;
76640;SDS011;65538;50.798;6.064;2023-08-21T06:03:45;9.53;;;4.37;;
76640;SDS011;65538;50.798;6.064;2023-08-21T06:06:10;11.03;;;4.53;;
76640;SDS011;65538;50.798;6.064;2023-08-21T06:08:36;11.70;;;4.55;;
76640;SDS011;65538;50.798;6.064;2023-08-21T06:11:01;9.63;;;4.53;;
76640;SDS011;65538;50.798;6.064;2023-08-21T06:13:26;11.63;;;5.00;;
76640;SDS011;65538;50.798;6.064;2023-08-21T06:15:52;10.30;;;5.05;;
76640;SDS011;65538;50.798;6.064;2023-08-21T06:18:17;10.65;;;4.85;;
76640;SDS011;65538;50.798;6.064;2023-08-21T06:20:42;12.90;;;5.53;;
76640;SDS011;65538;50.798;6.064;2023-08-21T06:23:08;9.65;;;5.38;;
76640;SDS011;65538;50.798;6.064;2023-08-21T06:25:34;12.57;;;4.82;;
76640;SDS011;65538;50.798;6.064;2023-08-21T06:27:59;7.87;;;4.37;;
76640;SDS011;65538;50.798;6.064;2023-08-21T06:30:25;11.00;;;5.33;;
76640;SDS011;65538;50.798;6.064;2023-08-21T06:32:50;9.75;;;4.82;;
76640;SDS011;65538;50.798;6.064;2023-08-21T06:35:15;12.80;;;6.63;;
76640;SDS011;65538;50.798;6.064;2023-08-21T06:37:41;11.68;;;6.07;;
76640;SDS011;65538;50.798;6.064;2023-08-21T06:40:06;13.03;;;6.20;;
76640;SDS011;65538;50.798;6.064;2023-08-21T06:42:32;12.30;;;6.35;;
76640;SDS011;65538;50.798;6.064;2023-08-21T06:44:57;7.90;;;5.23;;
76640;SDS011;65538;50.798;6.064;2023-08-21T06:47:22;12.10;;;6.33;;
76640;SDS011;65538;50.798;6.064;2023-08-21T06:49:47;11.07;;;6.20;;
76640;SDS011;65538;50.798;6.064;2023-08-21T06:52:12;15.83;;;5.93;;
76640;SDS011;65538;50.798;6.064;2023-08-21T06:54:37;12.17;;;7.00;;
76640;SDS011;65538;50.798;6.064;2023-08-21T06:57:03;10.70;;;6.33;;
76640;SDS011;65538;50.798;6.064;2023-08-21T06:59:28;13.02;;;7.03;;
76640;SDS011;65538;50.798;6.064;2023-08-21T07:01:53;17.17;;;7.40;;
76640;SDS011;65538;50.798;6.064;2023-08-21T07:04:18;13.97;;;6.83;;
76640;SDS011;65538;50.798;6.064;2023-08-21T07:06:44;12.50;;;6.63;;
76640;SDS011;65538;50.798;6.064;2023-08-21T07:09:09;12.17;;;7.07;;
76640;SDS011;65538;50.798;6.064;2023-08-21T07:11:35;14.45;;;6.53;;
76640;SDS011;65538;50.798;6.064;2023-08-21T07:14:00;12.97;;;6.57;;
76640;SDS011;65538;50.798;6.064;2023-08-21T07:16:25;17.33;;;6.50;;
76640;SDS011;65538;50.798;6.064;2023-08-21T07:18:51;7.10;;;4.55;;
76640;SDS011;65538;50.798;6.064;2023-08-21T07:21:16;12.83;;;6.87;;
76640;SDS011;65538;50.798;6.064;2023-08-21T07:23:41;12.57;;;6.80;;
76640;SDS011;65538;50.798;6.064;2023-08-21T07:26:06;14.63;;;7.00;;
76640;SDS011;65538;50.798;6.064;2023-08-21T07:28:33;9.52;;;6.60;;
76640;SDS011;65538;50.798;6.064;2023-08-21T07:30:58;12.32;;;7.85;;
76640;SDS011;65538;50.798;6.064;2023-08-21T07:33:24;18.03;;;8.00;;
76640;SDS011;65538;50.798;6.064;2023-08-21T07:36:00;16.05;;;7.53;;
76640;SDS011;65538;50.798;6.064;2023-08-21T07:38:25;13.18;;;7.45;;
76640;SDS011;65538;50.798;6.064;2023-08-21T07:40:50;16.20;;;7.97;;
76640;SDS011;65538;50.798;6.064;2023-08-21T07:43:15;13.23;;;6.83;;
76640;SDS011;65538;50.798;6.064;2023-08-21T07:45:41;12.97;;;6.37;;
76640;SDS011;65538;50.798;6.064;2023-08-21T07:48:06;11.33;;;6.17;;
76640;SDS011;65538;50.798;6.064;2023-08-21T07:50:31;18.30;;;7.90;;
76640;SDS011;65538;50.798;6.064;2023-08-21T07:52:56;10.60;;;6.97;;
76640;SDS011;65538;50.798;6.064;2023-08-21T07:55:22;16.67;;;8.23;;
76640;SDS011;65538;50.798;6.064;2023-08-21T07:57:47;13.70;;;7.20;;
76640;SDS011;65538;50.798;6.064;2023-08-21T08:00:12;12.87;;;6.83;;
76640;SDS011;65538;50.798;6.064;2023-08-21T08:02:38;14.50;;;6.60;;
76640;SDS011;65538;50.798;6.064;2023-08-21T08:05:03;13.67;;;7.80;;
76640;SDS011;65538;50.798;6.064;2023-08-21T08:07:28;13.98;;;8.07;;
76640;SDS011;65538;50.798;6.064;2023-08-21T08:09:53;14.57;;;7.10;;
76640;SDS011;65538;50.798;6.064;2023-08-21T08:12:19;13.23;;;8.47;;
76640;SDS011;65538;50.798;6.064;2023-08-21T08:14:44;15.00;;;8.50;;
76640;SDS011;65538;50.798;6.064;2023-08-21T08:17:09;15.73;;;8.63;;
76640;SDS011;65538;50.798;6.064;2023-08-21T08:19:34;13.83;;;8.10;;
76640;SDS011;65538;50.798;6.064;2023-08-21T08:21:59;17.13;;;8.97;;
76640;SDS011;65538;50.798;6.064;2023-08-21T08:24:25;14.00;;;9.77;;
76640;SDS011;65538;50.798;6.064;2023-08-21T08:26:50;17.13;;;8.73;;
76640;SDS011;65538;50.798;6.064;2023-08-21T08:29:15;19.20;;;10.00;;
76640;SDS011;65538;50.798;6.064;2023-08-21T08:31:40;15.07;;;9.30;;
76640;SDS011;65538;50.798;6.064;2023-08-21T08:34:05;17.10;;;10.00;;
76640;SDS011;65538;50.798;6.064;2023-08-21T08:36:31;14.67;;;9.97;;
76640;SDS011;65538;50.798;6.064;2023-08-21T08:38:56;16.33;;;9.07;;
76640;SDS011;65538;50.798;6.064;2023-08-21T08:43:50;17.17;;;9.88;;
76640;SDS011;65538;50.798;6.064;2023-08-21T08:46:15;17.85;;;9.25;;
76640;SDS011;65538;50.798;6.064;2023-08-21T08:48:40;15.47;;;9.70;;
76640;SDS011;65538;50.798;6.064;2023-08-21T08:51:06;18.08;;;9.10;;
76640;SDS011;65538;50.798;6.064;2023-08-21T08:53:31;16.10;;;8.43;;
76640;SDS011;65538;50.798;6.064;2023-08-21T08:55:57;16.88;;;9.45;;
76640;SDS011;65538;50.798;6.064;2023-08-21T08:58:22;15.27;;;7.97;;
76640;SDS011;65538;50.798;6.064;2023-08-21T09:00:48;18.17;;;8.87;;
76640;SDS011;65538;50.798;6.064;2023-08-21T09:03:13;18.57;;;9.73;;
76640;SDS011;65538;50.798;6.064;2023-08-21T09:05:39;14.93;;;8.30;;
76640;SDS011;65538;50.798;6.064;2023-08-21T09:10:33;17.23;;;7.80;;
76640;SDS011;65538;50.798;6.064;2023-08-21T09:12:58;12.02;;;7.47;;
76640;SDS011;65538;50.798;6.064;2023-08-21T09:15:29;13.43;;;7.57;;
76640;SDS011;65538;50.798;6.064;2023-08-21T09:17:57;16.27;;;8.45;;
76640;SDS011;65538;50.798;6.064;2023-08-21T09:20:22;13.70;;;7.43;;
76640;SDS011;65538;50.798;6.064;2023-08-21T09:22:54;15.67;;;7.60;;
76640;SDS011;65538;50.798;6.064;2023-08-21T09:25:22;14.30;;;7.90;;
76640;SDS011;65538;50.798;6.064;2023-08-21T09:27:49;18.13;;;8.50;;
76640;SDS011;65538;50.798;6.064;2023-08-21T09:30:16;16.05;;;7.45;;
76640;SDS011;65538;50.798;6.064;2023-08-21T09:35:20;16.52;;;7.18;;
76640;SDS011;65538;50.798;6.064;2023-08-21T09:37:48;15.77;;;8.63;;
76640;SDS011;65538;50.798;6.064;2023-08-21T09:40:14;14.23;;;8.05;;
76640;SDS011;65538;50.798;6.064;2023-08-21T09:42:40;17.73;;;8.95;;
76640;SDS011;65538;50.798;6.064;2023-08-21T09:45:05;16.27;;;8.33;;
76640;SDS011;65538;50.798;6.064;2023-08-21T09:47:31;17.20;;;9.85;;
76640;SDS011;65538;50.798;6.064;2023-08-21T09:49:56;20.02;;;9.23;;
76640;SDS011;65538;50.798;6.064;2023-08-21T09:52:21;13.80;;;7.50;;
76640;SDS011;65538;50.798;6.064;2023-08-21T09:54:47;16.55;;;11.40;;
76640;SDS011;65538;50.798;6.064;2023-08-21T09:57:13;18.02;;;10.40;;
76640;SDS011;65538;50.798;6.064;2023-08-21T09:59:38;17.73;;;9.77;;
76640;SDS011;65538;50.798;6.064;2023-08-21T10:02:05;16.05;;;9.23;;
76640;SDS011;65538;50.798;6.064;2023-08-21T10:04:31;17.42;;;9.35;;
76640;SDS011;65538;50.798;6.064;2023-08-21T10:06:57;18.45;;;9.48;;
76640;SDS011;65538;50.798;6.064;2023-08-21T10:09:23;13.90;;;8.20;;
76640;SDS011;65538;50.798;6.064;2023-08-21T10:11:48;17.17;;;10.05;;
76640;SDS011;65538;50.798;6.064;2023-08-21T10:14:13;16.53;;;8.03;;
76640;SDS011;65538;50.798;6.064;2023-08-21T10:16:39;19.10;;;11.23;;
76640;SDS011;65538;50.798;6.064;2023-08-21T10:19:04;18.37;;;10.37;;
76640;SDS011;65538;50.798;6.064;2023-08-21T10:21:36;20.80;;;11.18;;
76640;SDS011;65538;50.798;6.064;2023-08-21T10:24:02;17.33;;;10.57;;
76640;SDS011;65538;50.798;6.064;2023-08-21T10:26:28;17.50;;;9.95;;
76640;SDS011;65538;50.798;6.064;2023-08-21T10:28:54;17.40;;;9.15;;
76640;SDS011;65538;50.798;6.064;2023-08-21T10:33:57;14.73;;;8.02;;
76640;SDS011;65538;50.798;6.064;2023-08-21T10:41:38;12.82;;;6.72;;
76640;SDS011;65538;50.798;6.064;2023-08-21T10:44:05;13.53;;;6.53;;
76640;SDS011;65538;50.798;6.064;2023-08-21T10:46:30;15.70;;;7.75;;
76640;SDS011;65538;50.798;6.064;2023-08-21T10:49:14;14.77;;;6.53;;
76640;SDS011;65538;50.798;6.064;2023-08-21T10:51:39;12.67;;;5.73;;
76640;SDS011;65538;50.798;6.064;2023-08-21T10:54:10;13.30;;;6.27;;
76640;SDS011;65538;50.798;6.064;2023-08-21T10:56:35;13.10;;;6.50;;
76640;SDS011;65538;50.798;6.064;2023-08-21T10:59:00;10.57;;;7.27;;
76640;SDS011;65538;50.798;6.064;2023-08-21T11:01:25;13.00;;;6.70;;
76640;SDS011;65538;50.798;6.064;2023-08-21T11:03:51;11.57;;;5.83;;
76640;SDS011;65538;50.798;6.064;2023-08-21T11:06:18;10.27;;;5.87;;
76640;SDS011;65538;50.798;6.064;2023-08-21T11:08:43;10.52;;;4.78;;
76640;SDS011;65538;50.798;6.064;2023-08-21T11:11:10;12.93;;;5.70;;
76640;SDS011;65538;50.798;6.064;2023-08-21T11:13:35;15.73;;;7.03;;
76640;SDS011;65538;50.798;6.064;2023-08-21T11:16:01;10.33;;;5.10;;
76640;SDS011;65538;50.798;6.064;2023-08-21T11:18:34;8.02;;;5.13;;
76640;SDS011;65538;50.798;6.064;2023-08-21T11:21:02;11.23;;;5.45;;
76640;SDS011;65538;50.798;6.064;2023-08-21T11:23:31;21.23;;;4.97;;
76640;SDS011;65538;50.798;6.064;2023-08-21T11:25:57;10.32;;;5.25;;
76640;SDS011;65538;50.798;6.064;2023-08-21T11:28:22;10.23;;;4.47;;
76640;SDS011;65538;50.798;6.064;2023-08-21T11:30:48;12.60;;;4.65;;
76640;SDS011;65538;50.798;6.064;2023-08-21T11:33:13;9.93;;;4.00;;
76640;SDS011;65538;50.798;6.064;2023-08-21T11:35:38;7.60;;;3.25;;
76640;SDS011;65538;50.798;6.064;2023-08-21T11:38:04;5.75;;;3.30;;
76640;SDS011;65538;50.798;6.064;2023-08-21T11:40:29;7.97;;;3.47;;
76640;SDS011;65538;50.798;6.064;2023-08-21T11:42:59;15.55;;;3.40;;
76640;SDS011;65538;50.798;6.064;2023-08-21T11:45:25;8.88;;;3.78;;
76640;SDS011;65538;50.798;6.064;2023-08-21T11:47:50;8.93;;;3.13;;
76640;SDS011;65538;50.798;6.064;2023-08-21T11:50:15;8.77;;;3.13;;
76640;SDS011;65538;50.798;6.064;2023-08-21T11:52:44;7.97;;;3.05;;
76640;SDS011;65538;50.798;6.064;2023-08-21T11:55:09;12.00;;;3.40;;
76640;SDS011;65538;50.798;6.064;2023-08-21T11:57:48;12.40;;;4.13;;
76640;SDS011;65538;50.798;6.064;2023-08-21T12:00:13;9.07;;;3.08;;
76640;SDS011;65538;50.798;6.064;2023-08-21T12:02:38;11.10;;;2.90;;
76640;SDS011;65538;50.798;6.064;2023-08-21T12:05:04;13.48;;;3.35;;
76640;SDS011;65538;50.798;6.064;2023-08-21T12:07:30;9.60;;;3.10;;
76640;SDS011;65538;50.798;6.064;2023-08-21T12:09:55;5.40;;;2.67;;
76640;SDS011;65538;50.798;6.064;2023-08-21T12:12:21;7.57;;;2.90;;
76640;SDS011;65538;50.798;6.064;2023-08-21T12:14:46;6.80;;;2.70;;
76640;SDS011;65538;50.798;6.064;2023-08-21T12:17:11;8.37;;;2.90;;
76640;SDS011;65538;50.798;6.064;2023-08-21T12:19:36;7.83;;;2.80;;
76640;SDS011;65538;50.798;6.064;2023-08-21T12:22:02;8.17;;;2.67;;
76640;SDS011;65538;50.798;6.064;2023-08-21T12:24:27;7.65;;;2.80;;
76640;SDS011;65538;50.798;6.064;2023-08-21T12:26:52;6.47;;;2.77;;
76640;SDS011;65538;50.798;6.064;2023-08-21T12:29:17;8.17;;;2.40;;
76640;SDS011;65538;50.798;6.064;2023-08-21T12:31:43;6.65;;;2.35;;
76640;SDS011;65538;50.798;6.064;2023-08-21T12:34:08;6.10;;;2.40;;
76640;SDS011;65538;50.798;6.064;2023-08-21T12:36:34;5.88;;;2.38;;
76640;SDS011;65538;50.798;6.064;2023-08-21T12:38:59;7.20;;;2.53;;
76640;SDS011;65538;50.798;6.064;2023-08-21T12:41:25;8.50;;;2.63;;
76640;SDS011;65538;50.798;6.064;2023-08-21T12:43:50;6.30;;;2.53;;
76640;SDS011;65538;50.798;6.064;2023-08-21T12:46:15;6.20;;;2.50;;
76640;SDS011;65538;50.798;6.064;2023-08-21T12:48:40;6.33;;;2.43;;
76640;SDS011;65538;50.798;6.064;2023-08-21T12:51:06;6.85;;;2.35;;
76640;SDS011;65538;50.798;6.064;2023-08-21T12:53:31;6.40;;;2.20;;
76640;SDS011;65538;50.798;6.064;2023-08-21T12:55:56;4.20;;;2.13;;
76640;SDS011;65538;50.798;6.064;2023-08-21T12:58:21;4.43;;;2.50;;
76640;SDS011;65538;50.798;6.064;2023-08-21T13:00:47;5.37;;;2.00;;
76640;SDS011;65538;50.798;6.064;2023-08-21T13:03:12;8.87;;;2.43;;
76640;SDS011;65538;50.798;6.064;2023-08-21T13:05:37;8.43;;;2.43;;
76640;SDS011;65538;50.798;6.064;2023-08-21T13:08:02;8.00;;;2.27;;
76640;SDS011;65538;50.798;6.064;2023-08-21T13:10:27;7.13;;;2.23;;
76640;SDS011;65538;50.798;6.064;2023-08-21T13:12:53;6.30;;;2.30;;
76640;SDS011;65538;50.798;6.064;2023-08-21T13:15:18;6.60;;;2.10;;
76640;SDS011;65538;50.798;6.064;2023-08-21T13:17:43;6.67;;;1.90;;
76640;SDS011;65538;50.798;6.064;2023-08-21T13:20:08;6.17;;;2.10;;
76640;SDS011;65538;50.798;6.064;2023-08-21T13:22:47;5.10;;;1.98;;
76640;SDS011;65538;50.798;6.064;2023-08-21T13:25:14;4.35;;;1.80;;
76640;SDS011;65538;50.798;6.064;2023-08-21T13:27:39;8.40;;;1.98;;
76640;SDS011;65538;50.798;6.064;2023-08-21T13:30:04;5.90;;;2.20;;
76640;SDS011;65538;50.798;6.064;2023-08-21T13:32:30;4.30;;;2.08;;
76640;SDS011;65538;50.798;6.064;2023-08-21T13:34:55;5.95;;;2.67;;
76640;SDS011;65538;50.798;6.064;2023-08-21T13:37:21;7.40;;;3.07;;
76640;SDS011;65538;50.798;6.064;2023-08-21T13:39:47;7.65;;;2.78;;
76640;SDS011;65538;50.798;6.064;2023-08-21T13:42:12;8.67;;;2.13;;
76640;SDS011;65538;50.798;6.064;2023-08-21T13:44:37;10.57;;;2.83;;
76640;SDS011;65538;50.798;6.064;2023-08-21T13:47:03;6.10;;;2.47;;
76640;SDS011;65538;50.798;6.064;2023-08-21T13:49:28;5.10;;;2.37;;
76640;SDS011;65538;50.798;6.064;2023-08-21T13:51:53;7.70;;;2.40;;
76640;SDS011;65538;50.798;6.064;2023-08-21T13:54:18;7.67;;;2.63;;
76640;SDS011;65538;50.798;6.064;2023-08-21T13:56:43;5.63;;;2.23;;
76640;SDS011;65538;50.798;6.064;2023-08-21T13:59:09;6.70;;;2.83;;
76640;SDS011;65538;50.798;6.064;2023-08-21T14:01:34;5.73;;;2.20;;
76640;SDS011;65538;50.798;6.064;2023-08-21T14:03:59;11.27;;;3.13;;
76640;SDS011;65538;50.798;6.064;2023-08-21T14:06:24;6.27;;;2.83;;
76640;SDS011;65538;50.798;6.064;2023-08-21T14:08:49;6.77;;;2.40;;
76640;SDS011;65538;50.798;6.064;2023-08-21T14:11:15;8.83;;;2.40;;
76640;SDS011;65538;50.798;6.064;2023-08-21T14:13:40;7.97;;;2.60;;
76640;SDS011;65538;50.798;6.064;2023-08-21T14:16:05;7.13;;;2.30;;
76640;SDS011;65538;50.798;6.064;2023-08-21T14:18:30;7.77;;;3.27;;
76640;SDS011;65538;50.798;6.064;2023-08-21T14:20:55;4.83;;;2.90;;
76640;SDS011;65538;50.798;6.064;2023-08-21T14:23:21;6.07;;;2.23;;
76640;SDS011;65538;50.798;6.064;2023-08-21T14:25:46;6.20;;;2.93;;
76640;SDS011;65538;50.798;6.064;2023-08-21T14:28:11;4.97;;;2.10;;
76640;SDS011;65538;50.798;6.064;2023-08-21T14:30:36;6.27;;;3.17;;
76640;SDS011;65538;50.798;6.064;2023-08-21T14:33:01;5.90;;;2.30;;
76640;SDS011;65538;50.798;6.064;2023-08-21T14:35:27;5.45;;;2.03;;
76640;SDS011;65538;50.798;6.064;2023-08-21T14:37:52;7.50;;;2.37;;
76640;SDS011;65538;50.798;6.064;2023-08-21T14:40:17;6.00;;;2.17;;
76640;SDS011;65538;50.798;6.064;2023-08-21T14:42:42;4.73;;;2.10;;
76640;SDS011;65538;50.798;6.064;2023-08-21T14:45:08;4.85;;;2.13;;
76640;SDS011;65538;50.798;6.064;2023-08-21T14:47:33;6.90;;;2.10;;
76640;SDS011;65538;50.798;6.064;2023-08-21T14:49:58;5.43;;;1.70;;
76640;SDS011;65538;50.798;6.064;2023-08-21T14:52:24;8.23;;;2.00;;